Thomson Dream — 9HA2381 — position and weather

sailwx.info

Track history (hours):
 
Tides and Currents Weather Stations Pressure Air Temp Water Temp Dewpoint Dewpoint Depression Visibility Wind Speed Wind Dir Waves Ship Positions

Thomson Dream

Last reported at 2017-Dec-10 03:03 UTC. Time now 2017-Dec-13 11:21 UTC.
Position N 28°41' W 016°16'.

Length 243 m; draft 7.6 m.

Type: Ship. MMSI: 248480975.

Date/timePositionNaut miles runAvg speedWind from/ knotsBaromVisibWave heightAir tempDewpointWater temp
2017-Dec-10 03:03N 28°41' W 016°16'215.9
2017-Dec-10 02:56N 28°41' W 016°14'715.4
2017-Dec-10 02:29N 28°41' W 016°06'815.6
2017-Dec-10 01:59N 28°40' W 015°57'816.0
2017-Dec-10 01:30N 28°39' W 015°49'816.0
2017-Dec-10 01:00N 28°35' W 015°41'815.9
2017-Dec-10 00:30N 28°29' W 015°35'816.3
2017-Dec-10 00:00N 28°22' W 015°30'816.5
2017-Dec-09 23:30N 28°15' W 015°24'715.0
2017-Dec-09 23:00N 28°08' W 015°22'3 5.9
2017-Dec-09 22:30N 28°08' W 015°25'0 0.2
2017-Dec-09 21:46N 28°08' W 015°25'0 0.0
2017-Dec-09 21:16N 28°08' W 015°25'0 0.0
2017-Dec-09 20:58N 28°08' W 015°25'0 0.0
2017-Dec-09 20:28N 28°08' W 015°25'0 0.0
2017-Dec-09 19:49N 28°08' W 015°25'0 0.0
2017-Dec-09 19:28N 28°08' W 015°25'0 0.0
2017-Dec-09 18:58N 28°08' W 015°25'0 0.0
2017-Dec-09 18:04N 28°08' W 015°25'0 0.0
2017-Dec-09 17:49N 28°08' W 015°25'0 0.0
2017-Dec-09 17:22N 28°08' W 015°25'0 0.0
2017-Dec-09 16:52N 28°08' W 015°25'0 0.0
2017-Dec-09 16:22N 28°08' W 015°25'0 0.0
2017-Dec-09 15:52N 28°08' W 015°25'0 0.0
2017-Dec-09 15:22N 28°08' W 015°25'0 0.0
2017-Dec-09 14:55N 28°08' W 015°25'0 0.0
2017-Dec-09 14:25N 28°08' W 015°25'0 0.0
2017-Dec-09 13:55N 28°08' W 015°25'0 0.0
2017-Dec-09 13:25N 28°08' W 015°25'0 0.0
2017-Dec-09 12:55N 28°08' W 015°25'0 0.0
2017-Dec-09 12:25N 28°08' W 015°25'0 0.0
2017-Dec-09 11:55N 28°08' W 015°25'0 0.0
2017-Dec-09 11:28N 28°08' W 015°25'0 0.0
2017-Dec-09 10:58N 28°08' W 015°25'0 0.0
2017-Dec-09 10:25N 28°08' W 015°25'0 0.0
2017-Dec-09 09:55N 28°08' W 015°25'0 0.0
2017-Dec-09 09:25N 28°08' W 015°25'0 0.0
2017-Dec-09 08:55N 28°08' W 015°25'0 0.0
2017-Dec-09 08:28N 28°08' W 015°25'0 0.0
2017-Dec-09 07:47N 28°08' W 015°25'0 0.5
2017-Dec-09 07:31N 28°08' W 015°25'2 3.8
2017-Dec-09 07:00N 28°07' W 015°23'3 5.5
2017-Dec-09 06:31N 28°08' W 015°21'4 7.3
2017-Dec-09 06:01N 28°12' W 015°19'3 6.5
2017-Dec-09 05:31N 28°15' W 015°19'3 6.3
2017-Dec-09 05:01N 28°18' W 015°20'5 9.0
2017-Dec-09 04:30N 28°22' W 015°22'510.5
2017-Dec-09 04:00N 28°26' W 015°26'510.4
2017-Dec-09 03:30N 28°30' W 015°30'510.4
2017-Dec-09 03:00N 28°33' W 015°35'5 9.6
2017-Dec-09 02:30N 28°34' W 015°40'510.1
2017-Dec-09 02:00N 28°31' W 015°44'510.2
2017-Dec-09 01:30N 28°27' W 015°48'510.1
2017-Dec-09 01:00N 28°23' W 015°51'510.4
2017-Dec-09 00:30N 28°19' W 015°55'510.2
2017-Dec-09 00:00N 28°17' W 016°00'611.8
2017-Dec-08 23:30N 28°21' W 016°06'611.6
2017-Dec-08 23:01N 28°25' W 016°10'5 9.6
2017-Dec-08 22:31N 28°29' W 016°14'1 1.3
2017-Dec-08 21:58N 28°28' W 016°15'0 0.0
2017-Dec-08 21:25N 28°28' W 016°15'0 0.0
2017-Dec-08 20:58N 28°28' W 016°15'0 0.0
2017-Dec-08 20:28N 28°28' W 016°15'0 0.0
2017-Dec-08 19:58N 28°28' W 016°15'0 0.0
2017-Dec-08 19:28N 28°28' W 016°15'0 0.0
2017-Dec-08 18:58N 28°28' W 016°15'0 0.0
2017-Dec-08 18:28N 28°28' W 016°15'0 0.0
2017-Dec-08 17:58N 28°28' W 016°15'0 0.0
2017-Dec-08 17:28N 28°28' W 016°15'0 0.0
2017-Dec-08 16:55N 28°28' W 016°15'0 0.0
2017-Dec-08 16:28N 28°28' W 016°15'0 0.0
2017-Dec-08 15:58N 28°28' W 016°15'0 0.0
2017-Dec-08 15:28N 28°28' W 016°15'0 0.0
2017-Dec-08 14:58N 28°28' W 016°15'0 0.0
2017-Dec-08 14:28N 28°28' W 016°15'0 0.0
2017-Dec-08 13:58N 28°28' W 016°15'0 0.0
2017-Dec-08 13:28N 28°28' W 016°15'0 0.0
2017-Dec-08 12:58N 28°28' W 016°15'0 0.0
2017-Dec-08 12:28N 28°28' W 016°15'0 0.0
2017-Dec-08 11:58N 28°28' W 016°15'0 0.0
2017-Dec-08 11:28N 28°28' W 016°15'0 0.0
2017-Dec-08 10:58N 28°28' W 016°15'0 0.0
2017-Dec-08 10:28N 28°28' W 016°15'0 0.0
2017-Dec-08 09:58N 28°28' W 016°15'0 0.0
2017-Dec-08 09:28N 28°28' W 016°15'0 0.0
2017-Dec-08 08:58N 28°28' W 016°15'0 0.0
2017-Dec-08 08:28N 28°28' W 016°15'0 0.0
2017-Dec-08 07:58N 28°28' W 016°15'0 0.0
2017-Dec-08 07:28N 28°28' W 016°15'0 0.0
2017-Dec-08 06:59N 28°28' W 016°15'0 0.6
2017-Dec-08 06:30N 28°29' W 016°14'2 4.0
2017-Dec-08 06:00N 28°28' W 016°12'510.0
2017-Dec-08 05:30N 28°27' W 016°07'611.3
2017-Dec-08 05:00N 28°27' W 016°00'511.0
2017-Dec-08 04:30N 28°28' W 015°54'611.3
2017-Dec-08 04:00N 28°33' W 015°50'611.4
2017-Dec-08 03:30N 28°37' W 015°46'611.5
2017-Dec-08 03:00N 28°38' W 015°39'611.6
2017-Dec-08 02:30N 28°39' W 015°33'611.6
2017-Dec-08 02:00N 28°39' W 015°26'611.7
2017-Dec-08 01:30N 28°40' W 015°19'611.3
2017-Dec-08 01:00N 28°41' W 015°13'611.3
2017-Dec-08 00:30N 28°42' W 015°07'511.1
2017-Dec-08 00:00N 28°42' W 015°00'610.9
2017-Dec-07 23:30N 28°43' W 014°54'511.0
2017-Dec-07 23:00N 28°43' W 014°48'611.4
2017-Dec-07 22:30N 28°44' W 014°41'611.7
2017-Dec-07 21:58N 28°45' W 014°34'4012.3
2017-Dec-07 18:41N 28°48' W 013°49'314.9
2017-Dec-07 18:30N 28°46' W 013°47'815.3
2017-Dec-07 18:00N 28°38' W 013°47'10 0.8
2017-Dec-07 06:25N 28°29' W 013°44'  
2017-Dec-03 00:25N 27°47' W 015°20'716.2
2017-Dec-03 00:00N 27°53' W 015°17'815.7
2017-Dec-02 23:30N 28°01' W 015°18'714.9
2017-Dec-02 23:00N 28°07' W 015°24'2 4.5
2017-Dec-02 22:30N 28°08' W 015°25'0 0.0
2017-Dec-02 22:00N 28°08' W 015°25'0 0.0
2017-Dec-02 21:30N 28°08' W 015°25'0 0.0
2017-Dec-02 20:50N 28°08' W 015°25'0 0.0
2017-Dec-02 20:23N 28°08' W 015°25'0 0.0
2017-Dec-02 19:53N 28°08' W 015°25'0 0.0
2017-Dec-02 19:20N 28°08' W 015°25'0 0.0
2017-Dec-02 18:53N 28°08' W 015°25'0 0.0
2017-Dec-02 18:23N 28°08' W 015°25'0 0.0
2017-Dec-02 17:56N 28°08' W 015°25'0 0.0
2017-Dec-02 17:26N 28°08' W 015°25'0 0.0
2017-Dec-02 16:56N 28°08' W 015°25'0 0.0
2017-Dec-02 16:26N 28°08' W 015°25'0 0.0
2017-Dec-02 15:56N 28°08' W 015°25'0 0.0
2017-Dec-02 15:26N 28°08' W 015°25'0 0.0
2017-Dec-02 14:59N 28°08' W 015°25'0 0.0
2017-Dec-02 14:29N 28°08' W 015°25'0 0.0
2017-Dec-02 13:59N 28°08' W 015°25'0 0.0
2017-Dec-02 13:29N 28°08' W 015°25'0 0.0
2017-Dec-02 12:59N 28°08' W 015°25'0 0.0
2017-Dec-02 12:26N 28°08' W 015°25'0 0.0
2017-Dec-02 11:56N 28°08' W 015°25'0 0.0
2017-Dec-02 11:29N 28°08' W 015°25'0 0.0
2017-Dec-02 10:59N 28°08' W 015°25'0 0.0
2017-Dec-02 10:29N 28°08' W 015°25'0 0.0
2017-Dec-02 09:31N 28°08' W 015°25'0 0.0
2017-Dec-02 09:16N 28°08' W 015°25'0 0.0
2017-Dec-02 08:58N 28°08' W 015°25'0 0.0
2017-Dec-02 08:28N 28°08' W 015°25'0 0.0
2017-Dec-02 07:58N 28°08' W 015°25'0 0.0
2017-Dec-02 07:31N 28°08' W 015°25'1 2.3
2017-Dec-02 07:01N 28°07' W 015°25'3 5.1
2017-Dec-02 06:30N 28°08' W 015°22'5 9.0
2017-Dec-02 06:00N 28°12' W 015°19'510.4
2017-Dec-02 05:30N 28°17' W 015°19'510.5
2017-Dec-02 05:00N 28°22' W 015°20'510.4
2017-Dec-02 04:30N 28°26' W 015°24'510.8
2017-Dec-02 04:00N 28°29' W 015°29'510.9
2017-Dec-02 03:30N 28°33' W 015°33'510.5
2017-Dec-02 03:00N 28°37' W 015°38'510.3
2017-Dec-02 02:30N 28°33' W 015°41'510.5
2017-Dec-02 02:00N 28°29' W 015°45'510.7
2017-Dec-02 01:30N 28°25' W 015°49'510.7
2017-Dec-02 01:00N 28°21' W 015°53'510.5
2017-Dec-02 00:30N 28°17' W 015°57'5 9.2
2017-Dec-01 23:59N 28°19' W 016°03'510.5
2017-Dec-01 23:30N 28°22' W 016°07'611.0
2017-Dec-01 23:00N 28°26' W 016°11'4 6.3
2017-Dec-01 22:24N 28°28' W 016°15'0 0.0
2017-Dec-01 20:25N 28°28' W 016°15'0 0.0
2017-Dec-01 14:16N 28°28' W 016°15'0 0.0
2017-Dec-01 13:49N 28°28' W 016°15'0 0.0
2017-Dec-01 13:22N 28°28' W 016°15'0 0.0
2017-Dec-01 12:52N 28°28' W 016°15'0 0.0
2017-Dec-01 12:04N 28°28' W 016°15'0 0.0
2017-Dec-01 11:52N 28°28' W 016°15'0 0.0
2017-Dec-01 06:55N 28°28' W 016°15'0 0.5
2017-Dec-01 06:29N 28°29' W 016°15'3 4.6
2017-Dec-01 05:51N 28°28' W 016°11'614.9
2017-Dec-01 05:28N 28°27' W 016°05'816.6
2017-Dec-01 05:00N 28°27' W 015°56'816.9
2017-Dec-01 04:30N 28°33' W 015°50'815.5
2017-Dec-01 04:01N 28°37' W 015°42'816.1
2017-Dec-01 03:30N 28°38' W 015°33'714.7
2017-Dec-01 03:00N 28°39' W 015°25'611.4
2017-Dec-01 02:30N 28°40' W 015°18'611.3
2017-Dec-01 02:00N 28°41' W 015°12'611.4
2017-Dec-01 01:30N 28°41' W 015°05'611.3
2017-Dec-01 01:00N 28°42' W 014°59'611.2
2017-Dec-01 00:30N 28°43' W 014°53'611.4
2017-Dec-01 00:00N 28°43' W 014°46'611.4
2017-Nov-30 23:30N 28°44' W 014°40'811.5
2017-Nov-30 22:49N 28°45' W 014°31'511.2
2017-Nov-30 22:23N 28°46' W 014°26'411.2
2017-Nov-30 22:00N 28°46' W 014°21'1111.3
2017-Nov-30 21:03N 28°48' W 014°09'  
Track history (hours):
 
Tides and Currents Weather Stations Pressure Air Temp Water Temp Dewpoint Dewpoint Depression Visibility Wind Speed Wind Dir Waves Ship Positions

Thomson Dream

Last reported at 2017-Dec-10 03:03 UTC. Time now 2017-Dec-13 11:21 UTC.
Position N 28°41' W 016°16'.

Length 243 m; draft 7.6 m.

Type: Ship. MMSI: 248480975.

Date/timePositionNaut miles runAvg speedWind from/ knotsBaromVisibWave heightAir tempDewpointWater temp
2017-Dec-10 03:03N 28°41' W 016°16'215.9
2017-Dec-10 02:56N 28°41' W 016°14'715.4
2017-Dec-10 02:29N 28°41' W 016°06'815.6
2017-Dec-10 01:59N 28°40' W 015°57'816.0
2017-Dec-10 01:30N 28°39' W 015°49'816.0
2017-Dec-10 01:00N 28°35' W 015°41'815.9
2017-Dec-10 00:30N 28°29' W 015°35'816.3
2017-Dec-10 00:00N 28°22' W 015°30'816.5
2017-Dec-09 23:30N 28°15' W 015°24'715.0
2017-Dec-09 23:00N 28°08' W 015°22'3 5.9
2017-Dec-09 22:30N 28°08' W 015°25'0 0.2
2017-Dec-09 21:46N 28°08' W 015°25'0 0.0
2017-Dec-09 21:16N 28°08' W 015°25'0 0.0
2017-Dec-09 20:58N 28°08' W 015°25'0 0.0
2017-Dec-09 20:28N 28°08' W 015°25'0 0.0
2017-Dec-09 19:49N 28°08' W 015°25'0 0.0
2017-Dec-09 19:28N 28°08' W 015°25'0 0.0
2017-Dec-09 18:58N 28°08' W 015°25'0 0.0
2017-Dec-09 18:04N 28°08' W 015°25'0 0.0
2017-Dec-09 17:49N 28°08' W 015°25'0 0.0
2017-Dec-09 17:22N 28°08' W 015°25'0 0.0
2017-Dec-09 16:52N 28°08' W 015°25'0 0.0
2017-Dec-09 16:22N 28°08' W 015°25'0 0.0
2017-Dec-09 15:52N 28°08' W 015°25'0 0.0
2017-Dec-09 15:22N 28°08' W 015°25'0 0.0
2017-Dec-09 14:55N 28°08' W 015°25'0 0.0
2017-Dec-09 14:25N 28°08' W 015°25'0 0.0
2017-Dec-09 13:55N 28°08' W 015°25'0 0.0
2017-Dec-09 13:25N 28°08' W 015°25'0 0.0
2017-Dec-09 12:55N 28°08' W 015°25'0 0.0
2017-Dec-09 12:25N 28°08' W 015°25'0 0.0
2017-Dec-09 11:55N 28°08' W 015°25'0 0.0
2017-Dec-09 11:28N 28°08' W 015°25'0 0.0
2017-Dec-09 10:58N 28°08' W 015°25'0 0.0
2017-Dec-09 10:25N 28°08' W 015°25'0 0.0
2017-Dec-09 09:55N 28°08' W 015°25'0 0.0
2017-Dec-09 09:25N 28°08' W 015°25'0 0.0
2017-Dec-09 08:55N 28°08' W 015°25'0 0.0
2017-Dec-09 08:28N 28°08' W 015°25'0 0.0
2017-Dec-09 07:47N 28°08' W 015°25'0 0.5
2017-Dec-09 07:31N 28°08' W 015°25'2 3.8
2017-Dec-09 07:00N 28°07' W 015°23'3 5.5
2017-Dec-09 06:31N 28°08' W 015°21'4 7.3
2017-Dec-09 06:01N 28°12' W 015°19'3 6.5
2017-Dec-09 05:31N 28°15' W 015°19'3 6.3
2017-Dec-09 05:01N 28°18' W 015°20'5 9.0
2017-Dec-09 04:30N 28°22' W 015°22'510.5
2017-Dec-09 04:00N 28°26' W 015°26'510.4
2017-Dec-09 03:30N 28°30' W 015°30'510.4
2017-Dec-09 03:00N 28°33' W 015°35'5 9.6
2017-Dec-09 02:30N 28°34' W 015°40'510.1
2017-Dec-09 02:00N 28°31' W 015°44'510.2
2017-Dec-09 01:30N 28°27' W 015°48'510.1
2017-Dec-09 01:00N 28°23' W 015°51'510.4
2017-Dec-09 00:30N 28°19' W 015°55'510.2
2017-Dec-09 00:00N 28°17' W 016°00'611.8
2017-Dec-08 23:30N 28°21' W 016°06'611.6
2017-Dec-08 23:01N 28°25' W 016°10'5 9.6
2017-Dec-08 22:31N 28°29' W 016°14'1 1.3
2017-Dec-08 21:58N 28°28' W 016°15'0 0.0
2017-Dec-08 21:25N 28°28' W 016°15'0 0.0
2017-Dec-08 20:58N 28°28' W 016°15'0 0.0
2017-Dec-08 20:28N 28°28' W 016°15'0 0.0
2017-Dec-08 19:58N 28°28' W 016°15'0 0.0
2017-Dec-08 19:28N 28°28' W 016°15'0 0.0
2017-Dec-08 18:58N 28°28' W 016°15'0 0.0
2017-Dec-08 18:28N 28°28' W 016°15'0 0.0
2017-Dec-08 17:58N 28°28' W 016°15'0 0.0
2017-Dec-08 17:28N 28°28' W 016°15'0 0.0
2017-Dec-08 16:55N 28°28' W 016°15'0 0.0
2017-Dec-08 16:28N 28°28' W 016°15'0 0.0
2017-Dec-08 15:58N 28°28' W 016°15'0 0.0
2017-Dec-08 15:28N 28°28' W 016°15'0 0.0
2017-Dec-08 14:58N 28°28' W 016°15'0 0.0
2017-Dec-08 14:28N 28°28' W 016°15'0 0.0
2017-Dec-08 13:58N 28°28' W 016°15'0 0.0
2017-Dec-08 13:28N 28°28' W 016°15'0 0.0
2017-Dec-08 12:58N 28°28' W 016°15'0 0.0
2017-Dec-08 12:28N 28°28' W 016°15'0 0.0
2017-Dec-08 11:58N 28°28' W 016°15'0 0.0
2017-Dec-08 11:28N 28°28' W 016°15'0 0.0
2017-Dec-08 10:58N 28°28' W 016°15'0 0.0
2017-Dec-08 10:28N 28°28' W 016°15'0 0.0
2017-Dec-08 09:58N 28°28' W 016°15'0 0.0
2017-Dec-08 09:28N 28°28' W 016°15'0 0.0
2017-Dec-08 08:58N 28°28' W 016°15'0 0.0
2017-Dec-08 08:28N 28°28' W 016°15'0 0.0
2017-Dec-08 07:58N 28°28' W 016°15'0 0.0
2017-Dec-08 07:28N 28°28' W 016°15'0 0.0
2017-Dec-08 06:59N 28°28' W 016°15'0 0.6
2017-Dec-08 06:30N 28°29' W 016°14'2 4.0
2017-Dec-08 06:00N 28°28' W 016°12'510.0
2017-Dec-08 05:30N 28°27' W 016°07'611.3
2017-Dec-08 05:00N 28°27' W 016°00'511.0
2017-Dec-08 04:30N 28°28' W 015°54'611.3
2017-Dec-08 04:00N 28°33' W 015°50'611.4
2017-Dec-08 03:30N 28°37' W 015°46'611.5
2017-Dec-08 03:00N 28°38' W 015°39'611.6
2017-Dec-08 02:30N 28°39' W 015°33'611.6
2017-Dec-08 02:00N 28°39' W 015°26'611.7
2017-Dec-08 01:30N 28°40' W 015°19'611.3
2017-Dec-08 01:00N 28°41' W 015°13'611.3
2017-Dec-08 00:30N 28°42' W 015°07'511.1
2017-Dec-08 00:00N 28°42' W 015°00'610.9
2017-Dec-07 23:30N 28°43' W 014°54'511.0
2017-Dec-07 23:00N 28°43' W 014°48'611.4
2017-Dec-07 22:30N 28°44' W 014°41'611.7
2017-Dec-07 21:58N 28°45' W 014°34'4012.3
2017-Dec-07 18:41N 28°48' W 013°49'314.9
2017-Dec-07 18:30N 28°46' W 013°47'815.3
2017-Dec-07 18:00N 28°38' W 013°47'10 0.8
2017-Dec-07 06:25N 28°29' W 013°44'  
2017-Dec-03 00:25N 27°47' W 015°20'716.2
2017-Dec-03 00:00N 27°53' W 015°17'815.7
2017-Dec-02 23:30N 28°01' W 015°18'714.9
2017-Dec-02 23:00N 28°07' W 015°24'2 4.5
2017-Dec-02 22:30N 28°08' W 015°25'0 0.0
2017-Dec-02 22:00N 28°08' W 015°25'0 0.0
2017-Dec-02 21:30N 28°08' W 015°25'0 0.0
2017-Dec-02 20:50N 28°08' W 015°25'0 0.0
2017-Dec-02 20:23N 28°08' W 015°25'0 0.0
2017-Dec-02 19:53N 28°08' W 015°25'0 0.0
2017-Dec-02 19:20N 28°08' W 015°25'0 0.0
2017-Dec-02 18:53N 28°08' W 015°25'0 0.0
2017-Dec-02 18:23N 28°08' W 015°25'0 0.0
2017-Dec-02 17:56N 28°08' W 015°25'0 0.0
2017-Dec-02 17:26N 28°08' W 015°25'0 0.0
2017-Dec-02 16:56N 28°08' W 015°25'0 0.0
2017-Dec-02 16:26N 28°08' W 015°25'0 0.0
2017-Dec-02 15:56N 28°08' W 015°25'0 0.0
2017-Dec-02 15:26N 28°08' W 015°25'0 0.0
2017-Dec-02 14:59N 28°08' W 015°25'0 0.0
2017-Dec-02 14:29N 28°08' W 015°25'0 0.0
2017-Dec-02 13:59N 28°08' W 015°25'0 0.0
2017-Dec-02 13:29N 28°08' W 015°25'0 0.0
2017-Dec-02 12:59N 28°08' W 015°25'0 0.0
2017-Dec-02 12:26N 28°08' W 015°25'0 0.0
2017-Dec-02 11:56N 28°08' W 015°25'0 0.0
2017-Dec-02 11:29N 28°08' W 015°25'0 0.0
2017-Dec-02 10:59N 28°08' W 015°25'0 0.0
2017-Dec-02 10:29N 28°08' W 015°25'0 0.0
2017-Dec-02 09:31N 28°08' W 015°25'0 0.0
2017-Dec-02 09:16N 28°08' W 015°25'0 0.0
2017-Dec-02 08:58N 28°08' W 015°25'0 0.0
2017-Dec-02 08:28N 28°08' W 015°25'0 0.0
2017-Dec-02 07:58N 28°08' W 015°25'0 0.0
2017-Dec-02 07:31N 28°08' W 015°25'1 2.3
2017-Dec-02 07:01N 28°07' W 015°25'3 5.1
2017-Dec-02 06:30N 28°08' W 015°22'5 9.0
2017-Dec-02 06:00N 28°12' W 015°19'510.4
2017-Dec-02 05:30N 28°17' W 015°19'510.5
2017-Dec-02 05:00N 28°22' W 015°20'510.4
2017-Dec-02 04:30N 28°26' W 015°24'510.8
2017-Dec-02 04:00N 28°29' W 015°29'510.9
2017-Dec-02 03:30N 28°33' W 015°33'510.5
2017-Dec-02 03:00N 28°37' W 015°38'510.3
2017-Dec-02 02:30N 28°33' W 015°41'510.5
2017-Dec-02 02:00N 28°29' W 015°45'510.7
2017-Dec-02 01:30N 28°25' W 015°49'510.7
2017-Dec-02 01:00N 28°21' W 015°53'510.5
2017-Dec-02 00:30N 28°17' W 015°57'5 9.2
2017-Dec-01 23:59N 28°19' W 016°03'510.5
2017-Dec-01 23:30N 28°22' W 016°07'611.0
2017-Dec-01 23:00N 28°26' W 016°11'4 6.3
2017-Dec-01 22:24N 28°28' W 016°15'0 0.0
2017-Dec-01 20:25N 28°28' W 016°15'0 0.0
2017-Dec-01 14:16N 28°28' W 016°15'0 0.0
2017-Dec-01 13:49N 28°28' W 016°15'0 0.0
2017-Dec-01 13:22N 28°28' W 016°15'0 0.0
2017-Dec-01 12:52N 28°28' W 016°15'0 0.0
2017-Dec-01 12:04N 28°28' W 016°15'0 0.0
2017-Dec-01 11:52N 28°28' W 016°15'0 0.0
2017-Dec-01 06:55N 28°28' W 016°15'0 0.5
2017-Dec-01 06:29N 28°29' W 016°15'3 4.6
2017-Dec-01 05:51N 28°28' W 016°11'614.9
2017-Dec-01 05:28N 28°27' W 016°05'816.6
2017-Dec-01 05:00N 28°27' W 015°56'816.9
2017-Dec-01 04:30N 28°33' W 015°50'815.5
2017-Dec-01 04:01N 28°37' W 015°42'816.1
2017-Dec-01 03:30N 28°38' W 015°33'714.7
2017-Dec-01 03:00N 28°39' W 015°25'611.4
2017-Dec-01 02:30N 28°40' W 015°18'611.3
2017-Dec-01 02:00N 28°41' W 015°12'611.4
2017-Dec-01 01:30N 28°41' W 015°05'611.3
2017-Dec-01 01:00N 28°42' W 014°59'611.2
2017-Dec-01 00:30N 28°43' W 014°53'611.4
2017-Dec-01 00:00N 28°43' W 014°46'611.4
2017-Nov-30 23:30N 28°44' W 014°40'811.5
2017-Nov-30 22:49N 28°45' W 014°31'511.2
2017-Nov-30 22:23N 28°46' W 014°26'411.2
2017-Nov-30 22:00N 28°46' W 014°21'1111.3
2017-Nov-30 21:03N 28°48' W 014°09'  

Dump ship's entire track history